Kennebeck — WDJ4252 — position and weather

sailwx.info

Track history (hours):
 
Tides and Currents Weather Stations Pressure Air Temp Water Temp Dewpoint Dewpoint Depression Visibility Wind Speed Wind Dir Waves Ship Positions

Kennebeck

Owner: Stolz, John L, Bend, OR. More information available from US FCC via Universal Licensing System and Coast Guard Vessel Documentation Center.

Last reported at 2018-Feb-06 17:48 UTC. Time now 2018-Feb-25 01:44 UTC.
Position N 31°51' W 081°09'.
Warning: this ship's position is 18 days out of date.

Length 12 m.

Type: Sailing vessel. MMSI: 367775890.

Date/timePositionNaut miles runAvg speedWind from/ knotsBaromVisibWave heightAir tempDewpointWater temp
2018-Feb-06 17:48N 31°51' W 081°09'2 6.8
2018-Feb-06 17:28N 31°51' W 081°06'2 3.8
2018-Feb-06 16:57N 31°53' W 081°05'2 5.0
2018-Feb-06 16:30N 31°55' W 081°06'2 3.2
2018-Feb-06 15:57N 31°57' W 081°05'3 5.3
2018-Feb-06 15:28N 31°59' W 081°03'3 5.4
2018-Feb-06 14:57N 32°01' W 081°01'2 3.6
2018-Feb-06 14:27N 32°03' W 081°02'2 5.0
2018-Feb-06 14:00N 32°04' W 081°01'3 6.0
2018-Feb-06 13:30N 32°05' W 080°57'3 5.0
2018-Feb-06 12:57N 32°06' W 080°54'2 5.0
2018-Feb-06 12:30N 32°08' W 080°53'3 1.2
2018-Feb-06 09:51N 32°10' W 080°49'0 0.0
2018-Feb-06 09:21N 32°10' W 080°49'0 0.0
2018-Feb-06 08:57N 32°10' W 080°49'0 0.0
2018-Feb-06 08:15N 32°10' W 080°49'0 0.0
2018-Feb-06 07:57N 32°10' W 080°49'0 0.0
2018-Feb-06 07:15N 32°10' W 080°49'0 0.0
2018-Feb-06 06:57N 32°10' W 080°49'0 0.0
2018-Feb-06 06:27N 32°10' W 080°49'0 0.0
2018-Feb-06 05:45N 32°10' W 080°49'0 0.0
2018-Feb-06 05:27N 32°10' W 080°49'0 0.0
2018-Feb-06 04:57N 32°10' W 080°49'0 0.0
2018-Feb-06 04:21N 32°10' W 080°49'0 0.0
2018-Feb-06 03:45N 32°10' W 080°49'0 0.0
2018-Feb-06 03:15N 32°10' W 080°49'0 0.0
2018-Feb-06 02:51N 32°10' W 080°49'0 0.0
2018-Feb-06 02:27N 32°10' W 080°49'0 0.0
2018-Feb-06 01:51N 32°10' W 080°49'0 0.0
2018-Feb-06 01:21N 32°10' W 080°49'0 0.0
2018-Feb-06 00:51N 32°10' W 080°49'0 0.0
2018-Feb-06 00:15N 32°10' W 080°49'0 0.0
2018-Feb-05 23:57N 32°10' W 080°49'0 0.0
2018-Feb-05 23:09N 32°10' W 080°49'0 0.0
2018-Feb-05 22:51N 32°10' W 080°49'0 0.0
2018-Feb-05 22:21N 32°10' W 080°49'0 0.0
2018-Feb-05 22:00N 32°10' W 080°49'  
Track history (hours):
 
Tides and Currents Weather Stations Pressure Air Temp Water Temp Dewpoint Dewpoint Depression Visibility Wind Speed Wind Dir Waves Ship Positions

Kennebeck

Owner: Stolz, John L, Bend, OR. More information available from US FCC via Universal Licensing System and Coast Guard Vessel Documentation Center.

Last reported at 2018-Feb-06 17:48 UTC. Time now 2018-Feb-25 01:44 UTC.
Position N 31°51' W 081°09'.
Warning: this ship's position is 18 days out of date.

Length 12 m.

Type: Sailing vessel. MMSI: 367775890.

Date/timePositionNaut miles runAvg speedWind from/ knotsBaromVisibWave heightAir tempDewpointWater temp
2018-Feb-06 17:48N 31°51' W 081°09'2 6.8
2018-Feb-06 17:28N 31°51' W 081°06'2 3.8
2018-Feb-06 16:57N 31°53' W 081°05'2 5.0
2018-Feb-06 16:30N 31°55' W 081°06'2 3.2
2018-Feb-06 15:57N 31°57' W 081°05'3 5.3
2018-Feb-06 15:28N 31°59' W 081°03'3 5.4
2018-Feb-06 14:57N 32°01' W 081°01'2 3.6
2018-Feb-06 14:27N 32°03' W 081°02'2 5.0
2018-Feb-06 14:00N 32°04' W 081°01'3 6.0
2018-Feb-06 13:30N 32°05' W 080°57'3 5.0
2018-Feb-06 12:57N 32°06' W 080°54'2 5.0
2018-Feb-06 12:30N 32°08' W 080°53'3 1.2
2018-Feb-06 09:51N 32°10' W 080°49'0 0.0
2018-Feb-06 09:21N 32°10' W 080°49'0 0.0
2018-Feb-06 08:57N 32°10' W 080°49'0 0.0
2018-Feb-06 08:15N 32°10' W 080°49'0 0.0
2018-Feb-06 07:57N 32°10' W 080°49'0 0.0
2018-Feb-06 07:15N 32°10' W 080°49'0 0.0
2018-Feb-06 06:57N 32°10' W 080°49'0 0.0
2018-Feb-06 06:27N 32°10' W 080°49'0 0.0
2018-Feb-06 05:45N 32°10' W 080°49'0 0.0
2018-Feb-06 05:27N 32°10' W 080°49'0 0.0
2018-Feb-06 04:57N 32°10' W 080°49'0 0.0
2018-Feb-06 04:21N 32°10' W 080°49'0 0.0
2018-Feb-06 03:45N 32°10' W 080°49'0 0.0
2018-Feb-06 03:15N 32°10' W 080°49'0 0.0
2018-Feb-06 02:51N 32°10' W 080°49'0 0.0
2018-Feb-06 02:27N 32°10' W 080°49'0 0.0
2018-Feb-06 01:51N 32°10' W 080°49'0 0.0
2018-Feb-06 01:21N 32°10' W 080°49'0 0.0
2018-Feb-06 00:51N 32°10' W 080°49'0 0.0
2018-Feb-06 00:15N 32°10' W 080°49'0 0.0
2018-Feb-05 23:57N 32°10' W 080°49'0 0.0
2018-Feb-05 23:09N 32°10' W 080°49'0 0.0
2018-Feb-05 22:51N 32°10' W 080°49'0 0.0
2018-Feb-05 22:21N 32°10' W 080°49'0 0.0
2018-Feb-05 22:00N 32°10' W 080°49'  

Dump ship's entire track history